Time;durP1;ratioP1;P1;durP2;ratioP2;P2;SDS_P1;SDS_P2;PMS_P1;PMS_P2;Temp;Humidity;BMP_temperature;BMP_pressure;BME280_temperature;BME280_humidity;BME280_pressure;Samples;Min_cycle;Max_cycle;Signal;HPM_P1;HPM_P2
2024/01/14 00:00:12;;;;;;;10.80;3.78;;;5.60;99.90;;;;;;5092369;28;20453;-65
2024/01/14 00:02:38;;;;;;;12.40;3.38;;;5.60;99.90;;;;;;5075456;28;20036;-66
2024/01/14 00:05:07;;;;;;;14.38;2.78;;;5.60;99.90;;;;;;5092810;28;20481;-66
2024/01/14 00:07:33;;;;;;;10.18;2.40;;;5.60;99.90;;;;;;5092484;28;20507;-66
2024/01/14 00:09:59;;;;;;;11.18;2.72;;;5.60;99.90;;;;;;5092275;28;20036;-66
2024/01/14 00:12:27;;;;;;;7.25;2.25;;;5.60;99.90;;;;;;5075667;28;20032;-66
2024/01/14 00:14:53;;;;;;;12.73;2.30;;;5.60;99.90;;;;;;5091661;28;20040;-66
2024/01/14 00:17:19;;;;;;;13.70;2.88;;;5.60;99.90;;;;;;5097063;28;20055;-66
2024/01/14 00:19:45;;;;;;;8.55;2.17;;;5.70;99.90;;;;;;5092142;28;20032;-65
2024/01/14 00:22:10;;;;;;;6.45;1.90;;;5.70;99.90;;;;;;5091358;28;20126;-65
2024/01/14 00:24:36;;;;;;;10.30;2.28;;;5.70;99.90;;;;;;5092207;28;20066;-66
2024/01/14 00:27:02;;;;;;;12.80;2.15;;;5.60;99.90;;;;;;5092636;28;20051;-66
2024/01/14 00:29:27;;;;;;;10.98;3.10;;;5.50;99.90;;;;;;5091838;28;20042;-66
2024/01/14 00:31:53;;;;;;;9.80;1.92;;;5.50;99.90;;;;;;5091916;28;20044;-65
2024/01/14 00:34:19;;;;;;;10.68;2.05;;;5.40;99.90;;;;;;5091660;28;20507;-66
2024/01/14 00:36:44;;;;;;;8.32;2.00;;;5.30;99.90;;;;;;5091017;28;20032;-66
2024/01/14 00:39:11;;;;;;;10.52;1.70;;;5.30;99.90;;;;;;5091904;28;20083;-66
2024/01/14 00:41:36;;;;;;;5.90;1.80;;;5.20;99.90;;;;;;5075227;28;20427;-65
2024/01/14 00:44:02;;;;;;;15.30;3.20;;;5.20;99.90;;;;;;5091468;28;20040;-65
2024/01/14 00:46:29;;;;;;;8.60;2.47;;;5.10;99.90;;;;;;5091796;28;20044;-66
2024/01/14 00:48:55;;;;;;;14.63;4.53;;;5.00;99.90;;;;;;5092296;28;20408;-66
2024/01/14 00:51:20;;;;;;;9.05;2.85;;;4.90;99.90;;;;;;5091182;28;20063;-66
2024/01/14 00:53:46;;;;;;;11.57;3.30;;;4.90;99.90;;;;;;5091181;28;20101;-66
2024/01/14 00:56:12;;;;;;;14.63;2.58;;;4.90;99.90;;;;;;5091382;28;20048;-66
2024/01/14 00:58:38;;;;;;;15.55;2.75;;;4.90;99.90;;;;;;5091253;28;20044;-66
2024/01/14 01:01:04;;;;;;;15.05;3.20;;;4.80;99.90;;;;;;5093024;28;20181;-65
2024/01/14 01:03:29;;;;;;;16.40;2.67;;;4.80;99.90;;;;;;5091348;28;20417;-65
2024/01/14 01:05:55;;;;;;;8.20;1.70;;;4.80;99.90;;;;;;5091110;28;20048;-65
2024/01/14 01:08:21;;;;;;;9.30;1.85;;;4.90;99.90;;;;;;5090595;28;20048;-65
2024/01/14 01:10:48;;;;;;;9.45;2.53;;;4.90;99.90;;;;;;5091480;28;20109;-66
2024/01/14 01:13:14;;;;;;;9.23;2.17;;;4.80;99.90;;;;;;5090690;28;20048;-66
2024/01/14 01:15:40;;;;;;;8.07;2.60;;;4.80;99.90;;;;;;5091173;28;20075;-66
2024/01/14 01:18:06;;;;;;;11.77;2.03;;;4.80;99.90;;;;;;5108909;28;20051;-66
2024/01/14 01:20:32;;;;;;;7.60;1.90;;;4.70;99.90;;;;;;5090980;28;20040;-66
2024/01/14 01:22:57;;;;;;;6.03;2.38;;;4.50;99.90;;;;;;5091109;28;20500;-65
2024/01/14 01:25:23;;;;;;;6.97;2.05;;;4.50;99.90;;;;;;5090463;28;20439;-65
2024/01/14 01:27:49;;;;;;;12.18;2.05;;;4.40;99.90;;;;;;5070801;28;20044;-65
2024/01/14 01:30:15;;;;;;;11.38;1.83;;;4.30;99.90;;;;;;5070467;28;20036;-65
2024/01/14 01:32:40;;;;;;;10.27;1.63;;;4.30;99.90;;;;;;5070159;28;20127;-66
2024/01/14 01:35:06;;;;;;;13.05;2.13;;;4.10;99.90;;;;;;5070776;28;20040;-65
2024/01/14 01:37:32;;;;;;;12.88;2.40;;;4.10;99.90;;;;;;5075947;28;20115;-65
2024/01/14 01:39:57;;;;;;;8.18;2.83;;;4.00;99.90;;;;;;5090653;28;20544;-65
2024/01/14 01:42:23;;;;;;;7.80;2.63;;;3.90;99.90;;;;;;5090336;28;20118;-65
2024/01/14 01:44:49;;;;;;;9.20;1.73;;;3.90;99.90;;;;;;5090388;28;20040;-65
2024/01/14 01:47:16;;;;;;;11.30;2.13;;;3.90;99.90;;;;;;5089619;28;20040;-65
2024/01/14 01:49:43;;;;;;;13.73;2.38;;;3.90;99.90;;;;;;5090737;28;20054;-65
2024/01/14 01:52:10;;;;;;;10.13;2.38;;;3.90;99.90;;;;;;5107391;28;20075;-65
2024/01/14 01:54:38;;;;;;;12.82;3.65;;;3.90;99.90;;;;;;5089827;28;20139;-65
2024/01/14 01:57:05;;;;;;;12.38;2.10;;;3.90;99.90;;;;;;5090419;28;20036;-65
2024/01/14 01:59:31;;;;;;;13.05;3.35;;;4.00;99.90;;;;;;5090140;28;20044;-65
2024/01/14 02:01:58;;;;;;;6.50;1.90;;;4.00;99.90;;;;;;5090233;28;20174;-65
2024/01/14 02:04:25;;;;;;;13.85;2.42;;;4.00;99.90;;;;;;5107241;28;20044;-65
2024/01/14 02:06:51;;;;;;;12.40;2.88;;;4.00;99.90;;;;;;5091019;28;20051;-65
2024/01/14 02:09:17;;;;;;;10.45;2.40;;;3.90;99.90;;;;;;5089365;28;20088;-65
2024/01/14 02:11:43;;;;;;;17.98;3.50;;;3.80;99.90;;;;;;5073421;28;20047;-65
2024/01/14 02:14:09;;;;;;;14.85;2.55;;;3.70;99.90;;;;;;5090514;28;20044;-65
2024/01/14 02:16:34;;;;;;;11.98;2.88;;;3.70;99.90;;;;;;5089279;28;20036;-65
2024/01/14 02:19:01;;;;;;;9.82;2.53;;;3.70;99.90;;;;;;5090286;28;20176;-65
2024/01/14 02:21:32;;;;;;;6.60;2.17;;;3.70;99.90;;;;;;5089133;28;20036;-65
2024/01/14 02:24:13;;;;;;;15.20;3.67;;;3.60;99.90;;;;;;5090314;28;20051;-65
2024/01/14 02:26:39;;;;;;;11.98;3.45;;;3.60;99.90;;;;;;5090112;28;20055;-65
2024/01/14 02:29:07;;;;;;;14.57;3.80;;;3.50;99.90;;;;;;5089688;28;20048;-65
2024/01/14 02:31:32;;;;;;;9.55;2.10;;;3.50;99.90;;;;;;5089973;28;20114;-65
2024/01/14 02:33:58;;;;;;;12.63;2.72;;;3.50;99.90;;;;;;5090479;28;20127;-65
2024/01/14 02:36:24;;;;;;;7.65;2.10;;;3.50;99.90;;;;;;5072360;28;20047;-65
2024/01/14 02:38:50;;;;;;;11.93;3.28;;;3.50;99.90;;;;;;5089983;28;20044;-65
2024/01/14 02:41:15;;;;;;;13.02;1.92;;;3.50;99.90;;;;;;5090097;28;20043;-65
2024/01/14 02:43:41;;;;;;;14.82;3.88;;;3.50;99.90;;;;;;5089572;28;20066;-65
2024/01/14 02:46:07;;;;;;;14.20;2.35;;;3.40;99.90;;;;;;5090172;28;20048;-65
2024/01/14 02:48:32;;;;;;;12.75;2.72;;;3.40;99.90;;;;;;5089490;28;20035;-65
2024/01/14 02:50:58;;;;;;;14.07;3.08;;;3.40;99.90;;;;;;5089636;28;20121;-65
2024/01/14 02:53:23;;;;;;;9.98;2.28;;;3.40;99.90;;;;;;5072541;28;20181;-65
2024/01/14 02:55:49;;;;;;;11.00;2.72;;;3.30;99.90;;;;;;5093436;28;20052;-65
2024/01/14 02:58:15;;;;;;;14.18;3.28;;;3.30;99.90;;;;;;5093483;28;20040;-65
2024/01/14 03:00:40;;;;;;;11.13;2.20;;;3.30;99.90;;;;;;5101108;28;20043;-65
2024/01/14 03:03:06;;;;;;;11.18;2.47;;;3.30;99.90;;;;;;5073765;28;20047;-65
2024/01/14 03:05:32;;;;;;;13.38;2.50;;;3.20;99.90;;;;;;5109141;28;20042;-65
2024/01/14 03:07:58;;;;;;;12.43;2.72;;;3.20;99.90;;;;;;5093440;28;20043;-65
2024/01/14 03:10:23;;;;;;;15.20;3.45;;;3.30;99.90;;;;;;5093595;28;20066;-65
2024/01/14 03:12:49;;;;;;;11.35;2.78;;;3.30;99.90;;;;;;5092921;28;20054;-65
2024/01/14 03:15:15;;;;;;;17.38;3.00;;;3.30;99.90;;;;;;5093058;28;20123;-65
2024/01/14 03:17:40;;;;;;;10.50;2.72;;;3.30;99.90;;;;;;5093304;28;20072;-65
2024/01/14 03:20:07;;;;;;;16.35;2.65;;;3.30;99.90;;;;;;5093008;28;20031;-65
2024/01/14 03:22:33;;;;;;;9.80;2.15;;;3.30;99.90;;;;;;5093054;28;20481;-65
2024/01/14 03:24:58;;;;;;;11.20;2.85;;;3.20;99.90;;;;;;5092990;28;20043;-65
2024/01/14 03:27:24;;;;;;;12.73;3.28;;;3.30;99.90;;;;;;5094528;28;20036;-65
2024/01/14 03:29:50;;;;;;;12.10;3.40;;;3.30;99.90;;;;;;5092713;28;20048;-65
2024/01/14 03:32:15;;;;;;;11.88;2.60;;;3.40;99.90;;;;;;5093936;28;20398;-65
2024/01/14 03:34:41;;;;;;;10.63;2.47;;;3.40;99.90;;;;;;5093043;28;20500;-65
2024/01/14 03:37:07;;;;;;;11.02;3.33;;;3.40;99.90;;;;;;5092885;28;20040;-65
2024/01/14 03:39:32;;;;;;;18.55;3.05;;;3.40;99.90;;;;;;5092625;28;20047;-65
2024/01/14 03:41:58;;;;;;;13.90;2.50;;;3.50;99.90;;;;;;5075376;28;20142;-66
2024/01/14 03:44:23;;;;;;;10.35;2.22;;;3.50;99.90;;;;;;5076187;28;20036;-65
2024/01/14 03:46:49;;;;;;;9.70;1.95;;;3.60;99.90;;;;;;5092282;28;20100;-65
2024/01/14 03:49:15;;;;;;;13.52;2.80;;;3.60;99.90;;;;;;5092605;28;20044;-65
2024/01/14 03:51:41;;;;;;;8.18;1.60;;;3.60;99.90;;;;;;5075753;28;20055;-65
2024/01/14 03:54:07;;;;;;;7.75;2.00;;;3.70;99.90;;;;;;5092555;28;20542;-66
2024/01/14 03:56:32;;;;;;;11.98;2.30;;;3.60;99.90;;;;;;5091442;28;20044;-65
2024/01/14 03:58:58;;;;;;;8.05;2.00;;;3.70;99.90;;;;;;5092856;28;20043;-65
2024/01/14 04:01:25;;;;;;;8.55;3.03;;;3.70;99.90;;;;;;5091887;28;20112;-65
2024/01/14 04:03:50;;;;;;;11.85;2.85;;;3.60;99.90;;;;;;5092514;28;20044;-65
2024/01/14 04:06:20;;;;;;;10.45;2.20;;;3.60;99.90;;;;;;5091736;28;20051;-66
2024/01/14 04:08:46;;;;;;;14.00;1.92;;;3.60;99.90;;;;;;5109170;28;20043;-65
2024/01/14 04:11:12;;;;;;;15.70;3.85;;;3.50;99.90;;;;;;5092051;28;20043;-65
2024/01/14 04:13:37;;;;;;;9.13;3.50;;;3.40;99.90;;;;;;5092103;28;20036;-65
2024/01/14 04:16:03;;;;;;;12.18;2.47;;;3.40;99.90;;;;;;5092015;28;20071;-65
2024/01/14 04:18:29;;;;;;;14.25;2.88;;;3.40;99.90;;;;;;5091936;28;20569;-65
2024/01/14 04:20:55;;;;;;;10.35;2.97;;;3.30;99.90;;;;;;5092349;28;20040;-65
2024/01/14 04:23:20;;;;;;;9.80;2.53;;;3.30;99.90;;;;;;5091398;28;20039;-66
2024/01/14 04:25:46;;;;;;;15.80;2.47;;;3.30;99.90;;;;;;5093201;28;20070;-65
2024/01/14 04:28:12;;;;;;;15.32;3.70;;;3.20;99.90;;;;;;5091016;28;20350;-66
2024/01/14 04:30:37;;;;;;;15.15;3.28;;;3.20;99.90;;;;;;5091971;28;20044;-65
2024/01/14 04:33:03;;;;;;;14.75;3.28;;;3.20;99.90;;;;;;5091963;28;20047;-65
2024/01/14 04:35:29;;;;;;;13.05;2.65;;;3.10;99.90;;;;;;5074270;28;20556;-65
2024/01/14 04:37:54;;;;;;;10.07;3.17;;;3.10;99.90;;;;;;5091598;28;20040;-65
2024/01/14 04:40:20;;;;;;;11.23;4.15;;;3.10;99.90;;;;;;5074935;28;20112;-65
2024/01/14 04:42:46;;;;;;;10.05;3.67;;;3.10;99.90;;;;;;5091087;28;20039;-65
2024/01/14 04:45:11;;;;;;;11.75;2.85;;;3.10;99.90;;;;;;5074277;28;20119;-65
2024/01/14 04:47:37;;;;;;;9.27;2.42;;;3.10;99.90;;;;;;5091698;28;20071;-65
2024/01/14 04:50:03;;;;;;;10.82;2.47;;;3.10;99.90;;;;;;5091201;28;20039;-65
2024/01/14 04:52:28;;;;;;;16.88;3.45;;;3.10;99.90;;;;;;5092458;28;20111;-65
2024/01/14 04:54:54;;;;;;;14.98;3.50;;;3.10;99.90;;;;;;5091508;28;20059;-66
2024/01/14 04:57:20;;;;;;;11.60;3.80;;;3.10;99.90;;;;;;5090361;28;20040;-66
2024/01/14 04:59:45;;;;;;;14.70;2.92;;;3.10;99.90;;;;;;5090941;28;20093;-65
2024/01/14 05:02:11;;;;;;;11.85;3.65;;;3.20;99.90;;;;;;5091359;28;20039;-66
2024/01/14 05:04:37;;;;;;;11.05;2.83;;;3.20;99.90;;;;;;5090900;28;20122;-66
2024/01/14 05:07:03;;;;;;;11.57;3.33;;;3.20;99.90;;;;;;5091282;28;20124;-66
2024/01/14 05:09:28;;;;;;;16.70;4.55;;;3.20;99.90;;;;;;5091020;28;20044;-66
2024/01/14 05:11:54;;;;;;;15.50;3.08;;;3.20;99.90;;;;;;5090474;28;20051;-66
2024/01/14 05:14:20;;;;;;;16.02;4.55;;;3.30;99.90;;;;;;5090651;28;20044;-66
2024/01/14 05:16:45;;;;;;;14.80;3.47;;;3.30;99.90;;;;;;5089686;28;20043;-66
2024/01/14 05:19:11;;;;;;;20.42;6.57;;;3.30;99.90;;;;;;5107358;28;20040;-66
2024/01/14 05:21:37;;;;;;;29.30;10.55;;;3.30;99.90;;;;;;5092105;28;20173;-65
2024/01/14 05:24:02;;;;;;;14.93;5.00;;;3.30;99.90;;;;;;5091243;28;20074;-65
2024/01/14 05:26:28;;;;;;;13.13;3.55;;;3.20;99.90;;;;;;5090435;28;20093;-65
2024/01/14 05:28:59;;;;;;;19.10;4.15;;;3.30;99.90;;;;;;5090742;28;20471;-66
2024/01/14 05:31:25;;;;;;;19.40;5.60;;;3.30;99.90;;;;;;5089731;28;20486;-65
2024/01/14 05:33:50;;;;;;;18.80;7.82;;;3.30;99.90;;;;;;5092136;28;20048;-65
2024/01/14 05:36:16;;;;;;;13.50;4.47;;;3.20;99.90;;;;;;5090423;28;20040;-65
2024/01/14 05:38:43;;;;;;;16.73;4.15;;;3.30;99.90;;;;;;5090223;28;20346;-66
2024/01/14 05:41:12;;;;;;;9.85;3.58;;;3.20;99.90;;;;;;5090978;28;20431;-66
2024/01/14 05:43:38;;;;;;;21.42;4.97;;;3.20;99.90;;;;;;5090880;28;20119;-65
2024/01/14 05:46:04;;;;;;;12.73;3.22;;;3.20;99.90;;;;;;5090775;28;20083;-65
2024/01/14 05:48:30;;;;;;;11.43;3.55;;;3.30;99.90;;;;;;5090873;28;20499;-65
2024/01/14 05:50:56;;;;;;;17.52;5.20;;;3.20;99.90;;;;;;5090983;28;20079;-65
2024/01/14 05:53:21;;;;;;;13.32;5.20;;;3.30;99.90;;;;;;5088970;28;20044;-65
2024/01/14 05:55:47;;;;;;;17.25;3.75;;;3.30;99.90;;;;;;5090227;28;20447;-65
2024/01/14 05:58:13;;;;;;;16.45;3.72;;;3.30;99.90;;;;;;5090753;28;20040;-65
2024/01/14 06:00:39;;;;;;;16.88;3.78;;;3.30;99.90;;;;;;5089755;28;20039;-65
2024/01/14 06:03:04;;;;;;;13.02;3.70;;;3.30;99.90;;;;;;5090690;28;20067;-65
2024/01/14 06:05:30;;;;;;;9.93;2.53;;;3.40;99.90;;;;;;5089534;28;20036;-65
2024/01/14 06:07:55;;;;;;;12.82;2.67;;;3.40;99.90;;;;;;5089986;28;20090;-65
2024/01/14 06:10:21;;;;;;;8.00;1.88;;;3.30;99.90;;;;;;5090101;28;20585;-65
2024/01/14 06:12:47;;;;;;;12.82;2.88;;;3.30;99.90;;;;;;5091461;28;20059;-65
2024/01/14 06:15:12;;;;;;;7.78;2.50;;;3.30;99.90;;;;;;5089600;28;20093;-65
2024/01/14 06:17:38;;;;;;;10.93;3.15;;;3.20;99.90;;;;;;5089972;28;20040;-65
2024/01/14 06:20:04;;;;;;;7.68;2.30;;;3.20;99.90;;;;;;5073749;28;20122;-65
2024/01/14 06:22:30;;;;;;;8.07;2.00;;;3.20;99.90;;;;;;5090682;28;20136;-65
2024/01/14 06:24:55;;;;;;;11.02;2.92;;;3.20;99.90;;;;;;5089714;28;20072;-65
2024/01/14 06:27:21;;;;;;;13.20;3.00;;;3.10;99.90;;;;;;5073417;28;20091;-65
2024/01/14 06:29:47;;;;;;;32.53;13.15;;;3.10;99.90;;;;;;5093260;28;20057;-65
2024/01/14 06:32:12;;;;;;;16.15;9.32;;;3.10;99.90;;;;;;5094100;28;20503;-66
2024/01/14 06:34:40;;;;;;;21.00;13.75;;;3.10;99.90;;;;;;5093981;28;20036;-65
2024/01/14 06:37:06;;;;;;;20.40;9.30;;;3.10;99.90;;;;;;5094271;28;20372;-65
2024/01/14 06:39:31;;;;;;;13.13;5.07;;;3.00;99.90;;;;;;5093637;28;20477;-65
2024/01/14 06:41:57;;;;;;;9.27;2.90;;;3.10;99.90;;;;;;5093714;28;20517;-65
2024/01/14 06:44:23;;;;;;;13.23;3.78;;;3.00;99.90;;;;;;5093827;28;20122;-66
2024/01/14 06:46:48;;;;;;;9.32;3.00;;;3.10;99.90;;;;;;5077101;28;20059;-65
2024/01/14 06:49:14;;;;;;;10.23;2.45;;;3.00;99.90;;;;;;5093207;28;20032;-65
2024/01/14 06:51:46;;;;;;;11.30;3.13;;;3.00;99.90;;;;;;5093503;28;20051;-66
2024/01/14 06:54:12;;;;;;;17.02;2.80;;;3.00;99.90;;;;;;5091854;28;20050;-65
2024/01/14 06:56:44;;;;;;;9.85;2.88;;;3.00;99.90;;;;;;5092684;28;20123;-65
2024/01/14 06:59:17;;;;;;;17.30;2.78;;;3.00;99.90;;;;;;5076321;28;20050;-65
2024/01/14 07:01:44;;;;;;;12.98;2.60;;;3.10;99.90;;;;;;5110586;28;20036;-66
2024/01/14 07:04:09;;;;;;;10.55;3.03;;;3.00;99.90;;;;;;5093101;28;20078;-65
2024/01/14 07:06:35;;;;;;;15.15;2.80;;;3.10;99.90;;;;;;5093447;28;20454;-65
2024/01/14 07:09:01;;;;;;;9.48;2.33;;;3.10;99.90;;;;;;5093446;28;20101;-65
2024/01/14 07:11:26;;;;;;;9.82;2.55;;;3.00;99.90;;;;;;5109576;28;20135;-65
2024/01/14 07:13:52;;;;;;;10.48;2.50;;;3.10;99.90;;;;;;5093066;28;20051;-65
2024/01/14 07:16:18;;;;;;;16.05;2.67;;;3.00;99.90;;;;;;5110352;28;20044;-65
2024/01/14 07:18:43;;;;;;;11.95;2.42;;;3.10;99.90;;;;;;5092552;28;20039;-66
2024/01/14 07:21:10;;;;;;;16.00;4.35;;;3.10;99.90;;;;;;5093426;28;20067;-66
2024/01/14 07:23:37;;;;;;;9.52;2.00;;;3.20;99.90;;;;;;5094550;28;20051;-65
2024/01/14 07:26:05;;;;;;;11.90;2.35;;;3.20;99.90;;;;;;5092734;28;20040;-66
2024/01/14 07:28:31;;;;;;;9.50;2.10;;;3.20;99.90;;;;;;5109279;28;20206;-66
2024/01/14 07:30:56;;;;;;;10.65;2.40;;;3.20;99.90;;;;;;5092990;28;20040;-66
2024/01/14 07:33:22;;;;;;;10.48;4.22;;;3.30;99.90;;;;;;5093097;28;20044;-66
2024/01/14 07:35:48;;;;;;;13.77;2.70;;;3.20;99.90;;;;;;5094350;28;20378;-65
2024/01/14 07:38:13;;;;;;;9.43;2.30;;;3.30;99.90;;;;;;5092442;28;20560;-65
2024/01/14 07:40:41;;;;;;;4.15;1.60;;;3.30;99.90;;;;;;5091603;28;20393;-65
2024/01/14 07:43:07;;;;;;;10.88;3.65;;;3.20;99.90;;;;;;5093293;28;20496;-65
2024/01/14 07:45:33;;;;;;;11.57;2.97;;;3.20;99.90;;;;;;5093419;28;20527;-65
2024/01/14 07:47:59;;;;;;;7.78;2.10;;;3.20;99.90;;;;;;5092559;28;20071;-65
2024/01/14 07:50:24;;;;;;;11.48;1.90;;;3.20;99.90;;;;;;5092555;28;20071;-65
2024/01/14 07:52:50;;;;;;;9.95;2.60;;;3.30;99.90;;;;;;5092150;28;20044;-65
2024/01/14 07:55:16;;;;;;;10.05;2.67;;;3.20;99.90;;;;;;5091832;28;20055;-65
2024/01/14 07:57:41;;;;;;;5.95;2.00;;;3.20;99.90;;;;;;5091846;28;20047;-65
2024/01/14 08:00:08;;;;;;;12.60;2.35;;;3.20;99.90;;;;;;5092272;28;20040;-65
2024/01/14 08:02:34;;;;;;;10.38;3.35;;;3.20;99.90;;;;;;5108835;28;20071;-65
2024/01/14 08:04:59;;;;;;;15.30;4.38;;;3.20;99.90;;;;;;5108849;28;20452;-65
2024/01/14 08:07:25;;;;;;;9.32;4.47;;;3.10;99.90;;;;;;5091991;28;20124;-65
2024/01/14 08:09:51;;;;;;;9.85;5.05;;;3.20;99.90;;;;;;5075025;28;20079;-65
2024/01/14 08:12:17;;;;;;;10.70;3.30;;;3.10;99.90;;;;;;5091560;28;20048;-65
2024/01/14 08:14:42;;;;;;;11.90;2.92;;;3.20;99.90;;;;;;5091180;28;20044;-65
2024/01/14 08:17:08;;;;;;;10.65;3.25;;;3.20;99.90;;;;;;5092060;28;20032;-64
2024/01/14 08:19:33;;;;;;;12.43;3.08;;;3.10;99.90;;;;;;5092134;28;20040;-65
2024/01/14 08:21:59;;;;;;;10.65;4.43;;;3.10;99.90;;;;;;5091957;28;20036;-66
2024/01/14 08:24:25;;;;;;;15.13;4.10;;;3.10;99.90;;;;;;5091467;28;20103;-66
2024/01/14 08:26:51;;;;;;;13.82;4.53;;;3.10;99.90;;;;;;5091683;28;20123;-65
2024/01/14 08:29:16;;;;;;;11.25;4.30;;;3.10;99.90;;;;;;5091173;28;20515;-65
2024/01/14 08:31:42;;;;;;;13.15;3.42;;;3.00;99.90;;;;;;5071736;28;20072;-66
2024/01/14 08:34:08;;;;;;;11.02;3.22;;;3.00;99.90;;;;;;5084558;28;20083;-66
2024/01/14 08:36:35;;;;;;;22.42;4.28;;;3.00;99.90;;;;;;5088468;28;20047;-66
2024/01/14 08:39:01;;;;;;;10.00;2.70;;;2.90;99.90;;;;;;5089692;28;20048;-66
2024/01/14 08:41:27;;;;;;;22.77;4.47;;;2.90;99.90;;;;;;5088257;28;20043;-66
2024/01/14 08:43:53;;;;;;;8.65;2.78;;;3.00;99.90;;;;;;5089010;28;20047;-65
2024/01/14 08:46:19;;;;;;;15.98;4.00;;;3.00;99.90;;;;;;5088520;28;20044;-66
2024/01/14 08:48:44;;;;;;;10.75;2.33;;;3.00;99.90;;;;;;5088912;28;20075;-66
2024/01/14 08:51:12;;;;;;;16.27;2.88;;;3.00;99.90;;;;;;5089173;28;20071;-66
2024/01/14 08:53:38;;;;;;;10.65;3.05;;;3.00;99.90;;;;;;5089017;28;20055;-66
2024/01/14 08:56:04;;;;;;;13.57;3.35;;;3.10;99.90;;;;;;5071757;28;20052;-66
2024/01/14 08:58:29;;;;;;;9.77;2.38;;;3.10;99.90;;;;;;5087894;28;20039;-66
2024/01/14 09:00:55;;;;;;;10.13;2.63;;;3.10;99.90;;;;;;5085376;28;20055;-66
2024/01/14 09:03:21;;;;;;;11.70;3.15;;;3.10;99.90;;;;;;5086540;28;20109;-66
2024/01/14 09:05:47;;;;;;;15.48;3.65;;;3.00;99.90;;;;;;5087996;28;20040;-66
2024/01/14 09:08:13;;;;;;;13.75;4.57;;;3.00;99.90;;;;;;5088669;28;20043;-66
2024/01/14 09:10:39;;;;;;;9.20;3.10;;;3.00;99.90;;;;;;5086923;28;20040;-66
2024/01/14 09:13:05;;;;;;;11.88;3.78;;;3.00;99.90;;;;;;5088298;28;20044;-66
2024/01/14 09:15:31;;;;;;;10.98;3.03;;;3.00;99.90;;;;;;5087866;28;20532;-66
2024/01/14 09:17:56;;;;;;;14.65;2.88;;;3.00;99.90;;;;;;5087962;28;20066;-65
2024/01/14 09:20:22;;;;;;;14.70;3.60;;;3.10;99.90;;;;;;5071069;28;20656;-65
2024/01/14 09:22:48;;;;;;;11.75;4.43;;;3.00;99.90;;;;;;5070952;28;20357;-65
2024/01/14 09:25:14;;;;;;;16.00;5.50;;;3.10;99.90;;;;;;5087637;28;20093;-66
2024/01/14 09:27:40;;;;;;;19.80;4.20;;;3.20;99.90;;;;;;5087751;28;20044;-65
2024/01/14 09:30:07;;;;;;;10.18;2.90;;;3.20;99.90;;;;;;5086117;28;20378;-65
2024/01/14 09:32:33;;;;;;;18.40;2.80;;;3.20;99.90;;;;;;5070444;28;20139;-65
2024/01/14 09:34:59;;;;;;;16.80;3.47;;;3.30;99.90;;;;;;5087671;28;20864;-67
2024/01/14 09:37:24;;;;;;;10.90;2.50;;;3.30;99.90;;;;;;5087631;28;20451;-66
2024/01/14 09:39:50;;;;;;;13.32;3.80;;;3.50;99.90;;;;;;5086783;28;20051;-65
2024/01/14 09:42:33;;;;;;;12.02;3.85;;;3.40;99.90;;;;;;5087284;28;20040;-65
2024/01/14 09:45:00;;;;;;;12.20;4.20;;;3.50;99.90;;;;;;5086663;28;20115;-66
2024/01/14 09:47:26;;;;;;;11.27;4.28;;;3.50;99.90;;;;;;5087981;28;20048;-66
2024/01/14 09:49:58;;;;;;;14.73;4.90;;;3.40;99.90;;;;;;5088121;28;20054;-66
2024/01/14 09:52:24;;;;;;;27.58;6.55;;;3.40;99.90;;;;;;5087627;28;20460;-66
2024/01/14 09:54:53;;;;;;;13.40;5.93;;;3.30;99.90;;;;;;5086851;28;20088;-66
2024/01/14 09:57:20;;;;;;;18.70;8.00;;;3.40;99.90;;;;;;5086589;28;20943;-66
2024/01/14 09:59:51;;;;;;;21.67;8.77;;;3.40;99.90;;;;;;5086393;28;20039;-66
2024/01/14 10:02:19;;;;;;;15.43;5.15;;;3.40;99.90;;;;;;5089781;28;20046;-65
2024/01/14 10:04:45;;;;;;;15.45;4.80;;;3.40;99.90;;;;;;5090055;28;20054;-65
2024/01/14 10:07:11;;;;;;;15.60;6.07;;;3.40;99.90;;;;;;5089772;28;20044;-65
2024/01/14 10:09:40;;;;;;;18.02;4.93;;;3.50;99.90;;;;;;5090126;28;20051;-66
2024/01/14 10:12:08;;;;;;;14.52;5.72;;;3.60;99.90;;;;;;5090737;28;20400;-65
2024/01/14 10:14:35;;;;;;;9.82;4.05;;;3.80;99.90;;;;;;5088633;28;20397;-65
2024/01/14 10:17:01;;;;;;;9.10;3.88;;;3.90;99.90;;;;;;5090200;28;20466;-65
2024/01/14 10:19:26;;;;;;;13.88;4.55;;;4.00;99.90;;;;;;5090265;28;20044;-65
2024/01/14 10:21:54;;;;;;;14.80;4.65;;;4.00;99.90;;;;;;5090665;28;20040;-65
2024/01/14 10:24:23;;;;;;;13.65;3.72;;;4.00;99.90;;;;;;5089631;28;20028;-65
2024/01/14 10:26:55;;;;;;;13.73;3.67;;;4.10;99.90;;;;;;5089499;28;20040;-66
2024/01/14 10:29:22;;;;;;;15.50;5.22;;;4.10;99.90;;;;;;5090062;28;20036;-66
2024/01/14 10:31:48;;;;;;;11.05;3.60;;;4.20;99.90;;;;;;5090096;28;20051;-65
2024/01/14 10:34:17;;;;;;;13.18;3.90;;;4.20;99.90;;;;;;5089260;28;20118;-66
2024/01/14 10:36:43;;;;;;;11.88;4.60;;;4.40;99.90;;;;;;5089895;28;20040;-66
2024/01/14 10:39:11;;;;;;;11.95;4.78;;;4.40;99.90;;;;;;5090268;28;20115;-66
2024/01/14 10:41:37;;;;;;;14.30;5.82;;;4.40;99.90;;;;;;5089423;28;20070;-66
2024/01/14 10:44:02;;;;;;;14.95;4.00;;;4.50;99.90;;;;;;5073345;28;20113;-66
2024/01/14 10:46:32;;;;;;;9.32;3.92;;;4.50;99.90;;;;;;5090044;28;20040;-66
2024/01/14 10:49:08;;;;;;;14.68;5.90;;;4.50;99.90;;;;;;5090044;28;20044;-66
2024/01/14 10:51:43;;;;;;;;;;;4.60;99.90;;;;;;5089964;28;20044;-66
2024/01/14 10:54:18;;;;;;;11.63;4.10;;;4.70;99.90;;;;;;5090288;28;19916;-66
2024/01/14 10:56:49;;;;;;;7.40;2.67;;;4.80;99.90;;;;;;5089441;28;20158;-66
2024/01/14 10:59:16;;;;;;;8.35;2.20;;;5.00;99.90;;;;;;5073166;28;20119;-66
2024/01/14 11:01:53;;;;;;;13.00;2.65;;;5.10;99.90;;;;;;5090129;28;20509;-66
2024/01/14 11:04:21;;;;;;;13.27;2.70;;;5.10;99.90;;;;;;5091913;28;20047;-66
2024/01/14 11:06:47;;;;;;;7.82;2.60;;;5.10;99.90;;;;;;5103214;28;20044;-66
2024/01/14 11:09:13;;;;;;;11.20;3.00;;;5.10;99.90;;;;;;5089327;28;20052;-66
2024/01/14 11:12:10;;;;;;;7.32;2.03;;;5.00;99.90;;;;;;5090004;28;20039;-66
2024/01/14 11:15:09;;;;;;;12.85;2.08;;;5.00;99.90;;;;;;5090676;28;20500;-66
2024/01/14 11:18:06;;;;;;;6.28;1.70;;;4.90;99.90;;;;;;5073733;28;20140;-66
2024/01/14 11:20:36;;;;;;;13.18;2.60;;;4.90;99.90;;;;;;5083646;28;20063;-65
2024/01/14 11:23:01;;;;;;;8.32;2.15;;;4.90;99.90;;;;;;5093413;28;20046;-64
2024/01/14 11:25:33;;;;;;;10.80;3.03;;;4.90;99.90;;;;;;5093080;28;20047;-64
2024/01/14 11:28:00;;;;;;;13.18;3.28;;;4.90;99.90;;;;;;5092412;28;20048;-65
2024/01/14 11:30:53;;;;;;;8.95;3.72;;;5.00;99.90;;;;;;5091992;28;20036;-67
2024/01/14 11:33:42;;;;;;;13.38;3.15;;;5.10;99.90;;;;;;5073007;28;20032;-67
2024/01/14 11:36:10;;;;;;;13.80;5.30;;;5.10;99.90;;;;;;5072640;28;20040;-67
2024/01/14 11:38:37;;;;;;;14.18;4.32;;;5.10;99.90;;;;;;5072217;28;20169;-67
2024/01/14 11:41:32;;;;;;;15.40;4.22;;;5.10;99.90;;;;;;5073059;28;20044;-64
2024/01/14 11:44:03;;;;;;;13.98;4.97;;;5.10;99.90;;;;;;5073179;28;20036;-64
2024/01/14 11:46:55;;;;;;;9.10;2.90;;;5.10;99.90;;;;;;5055500;28;20056;-64
2024/01/14 11:49:23;;;;;;;13.82;4.20;;;5.10;99.90;;;;;;5069361;28;20512;-64
2024/01/14 11:52:01;;;;;;;15.02;4.60;;;5.10;99.90;;;;;;5072367;28;20051;-64
2024/01/14 11:54:27;;;;;;;16.80;5.45;;;5.30;99.90;;;;;;5072302;28;20051;-64
2024/01/14 11:56:53;;;;;;;11.88;3.70;;;5.30;99.90;;;;;;5072538;28;20075;-64
2024/01/14 11:59:19;;;;;;;27.45;11.90;;;5.40;99.90;;;;;;5072991;28;20366;-65
2024/01/14 12:01:45;;;;;;;9.38;2.13;;;5.40;99.90;;;;;;5089731;28;20070;-63
2024/01/14 12:04:11;;;;;;;7.38;2.78;;;5.50;99.90;;;;;;5092669;28;20514;-65
2024/01/14 12:06:41;;;;;;;8.73;2.72;;;5.50;99.90;;;;;;5091684;28;20040;-63
2024/01/14 12:09:08;;;;;;;12.68;4.45;;;5.50;99.90;;;;;;5075644;28;20040;-62
2024/01/14 12:11:34;;;;;;;8.10;2.40;;;5.50;99.90;;;;;;5092831;28;20044;-65
2024/01/14 12:14:00;;;;;;;5.85;1.60;;;5.50;99.90;;;;;;5091889;28;20135;-65
2024/01/14 12:16:33;;;;;;;9.13;3.85;;;5.40;99.90;;;;;;5093181;28;20040;-67
2024/01/14 12:18:59;;;;;;;7.10;2.55;;;5.40;99.90;;;;;;5107012;28;20054;-68
2024/01/14 12:21:26;;;;;;;10.57;2.92;;;5.40;99.90;;;;;;5090799;28;20088;-67
2024/01/14 12:23:53;;;;;;;15.85;4.97;;;5.40;99.90;;;;;;5088318;28;20040;-63
2024/01/14 12:26:22;;;;;;;11.65;3.15;;;5.40;99.90;;;;;;5068143;28;20043;-63
2024/01/14 12:28:48;;;;;;;6.38;2.65;;;5.50;99.90;;;;;;5088011;28;20471;-63
2024/01/14 12:31:21;;;;;;;10.20;2.05;;;5.40;99.90;;;;;;5089225;28;20044;-63
2024/01/14 12:33:47;;;;;;;8.18;1.40;;;5.40;99.90;;;;;;5089176;28;20114;-68
2024/01/14 12:36:14;;;;;;;9.45;1.90;;;5.50;99.90;;;;;;5089078;28;20044;-62
2024/01/14 12:38:43;;;;;;;4.55;1.60;;;5.60;99.90;;;;;;5087511;28;20039;-66
2024/01/14 12:41:10;;;;;;;4.03;1.20;;;5.70;99.90;;;;;;5068153;28;20501;-65
2024/01/14 12:43:36;;;;;;;5.40;1.35;;;5.70;99.90;;;;;;5083914;28;20051;-66
2024/01/14 12:46:04;;;;;;;6.50;1.48;;;5.80;99.90;;;;;;5088871;28;20047;-66
2024/01/14 12:48:31;;;;;;;6.20;1.75;;;5.80;99.90;;;;;;5099240;28;20058;-64